Storm Events Database

Event Details

Event Tornado
-- Scale EF1
-- Length 3.96 Miles
-- Width 200 Yards
State ARKANSAS
County/Area CLARK
WFO LZK
Report Source NWS Storm Survey
NCDC Data Source CSV
Begin Date 2011-04-04 08:08:00.0 CST-6
Begin Location 1WNW WHELEN SPGS
Begin Lat/Lon 33.83/-93.13
End Date 2011-04-04 08:14:00.0 CST-6
End Location 3E WHELEN SPGS
End Lat/Lon 33.84/-93.06
Deaths Direct/Indirect 0/0 (fatality details below, when available...)
Injuries Direct/Indirect 0/0
Property Damage 50.00K
Crop Damage 0.00K
Episode Narrative A strong cold front pushed into Arkansas on the 4th. In advance of the front, warm, moist air was in place. The atmosphere was more unstable than it had been any time so far this year. As a result, severe thunderstorms erupted along and ahead of the cold front. Numerous instances of wind damage occurred, especially in the southern half of the state. An isolated tornado occurred in Clark County.
Event Narrative A house had shingles and siding blown off, and its TV antenna blown over. At the same residence, a huge tree smashed into the tractor shed, and a canning shed was destroyed, scattering jars and bottles all over the back yard and an adjacent pasture. Numerous trees were blown down, as were a few power poles and power lines. Farm gates were destroyed.


     ‚Äč



All events for this episode:

Location County/Zone St. Date Time T.Z. Type Mag Dth Inj PrD CrD
Totals: 0 3 1.765M 0.00K
BLACKWELL CONWAY CO. AR 04/04/2011 03:54 CST-6 Hail 1.00 in. 0 0 0.00K 0.00K
WITTS SPGS SEARCY CO. AR 04/04/2011 05:46 CST-6 Hail 1.75 in. 0 0 0.00K 0.00K
MARSHALL SEARCY CO. AR 04/04/2011 05:54 CST-6 Hail 0.75 in. 0 0 0.00K 0.00K
MARSHALL SEARCY CO. AR 04/04/2011 05:54 CST-6 Thunderstorm Wind 52 kts. EG 0 0 15.00K 0.00K
LESLIE SEARCY CO. AR 04/04/2011 06:20 CST-6 Thunderstorm Wind 52 kts. EG 0 0 10.00K 0.00K
LESLIE SEARCY CO. AR 04/04/2011 06:20 CST-6 Hail 1.00 in. 0 0 0.00K 0.00K
MELBOURNE IZARD CO. AR 04/04/2011 06:21 CST-6 Thunderstorm Wind 56 kts. EG 0 0 125.00K 0.00K
CHEROKEE VLG SHARP CO. AR 04/04/2011 06:28 CST-6 Thunderstorm Wind 52 kts. EG 0 0 10.00K 0.00K
CENTERVILLE YELL CO. AR 04/04/2011 06:30 CST-6 Thunderstorm Wind 52 kts. EG 0 0 15.00K 0.00K
HEBER SPGS CLEBURNE CO. AR 04/04/2011 07:30 CST-6 Thunderstorm Wind 56 kts. EG 0 1 100.00K 0.00K
DELIGHT PIKE CO. AR 04/04/2011 07:51 CST-6 Thunderstorm Wind 52 kts. EG 0 0 15.00K 0.00K
OKOLONA CLARK CO. AR 04/04/2011 08:00 CST-6 Thunderstorm Wind 56 kts. EG 0 0 50.00K 0.00K
WHELEN SPGS CLARK CO. AR 04/04/2011 08:08 CST-6 Tornado EF1 0 0 50.00K 0.00K
ARKADELPHIA CLARK CO. AR 04/04/2011 08:09 CST-6 Thunderstorm Wind 56 kts. EG 0 0 20.00K 0.00K
GURDON CLARK CO. AR 04/04/2011 08:09 CST-6 Thunderstorm Wind 52 kts. EG 0 0 100.00K 0.00K
DALARK DALLAS CO. AR 04/04/2011 08:24 CST-6 Thunderstorm Wind 52 kts. EG 0 0 3.00K 0.00K
DALARK DALLAS CO. AR 04/04/2011 08:28 CST-6 Thunderstorm Wind 56 kts. EG 0 0 5.00K 0.00K
MANNING DALLAS CO. AR 04/04/2011 08:28 CST-6 Thunderstorm Wind 52 kts. EG 0 0 3.00K 0.00K
MANNING DALLAS CO. AR 04/04/2011 08:28 CST-6 Thunderstorm Wind 52 kts. EG 0 0 3.00K 0.00K
MANNING DALLAS CO. AR 04/04/2011 08:28 CST-6 Thunderstorm Wind 52 kts. EG 0 0 10.00K 0.00K
MANNING DALLAS CO. AR 04/04/2011 08:28 CST-6 Thunderstorm Wind 52 kts. EG 0 0 3.00K 0.00K
TULIP DALLAS CO. AR 04/04/2011 08:34 CST-6 Thunderstorm Wind 52 kts. EG 0 0 3.00K 0.00K
LEOLA GRANT CO. AR 04/04/2011 08:37 CST-6 Thunderstorm Wind 52 kts. EG 0 0 3.00K 0.00K
TULIP DALLAS CO. AR 04/04/2011 08:37 CST-6 Thunderstorm Wind 52 kts. EG 0 0 3.00K 0.00K
LEOLA GRANT CO. AR 04/04/2011 08:41 CST-6 Thunderstorm Wind 56 kts. EG 0 0 30.00K 0.00K
LEOLA GRANT CO. AR 04/04/2011 08:41 CST-6 Hail 1.00 in. 0 0 0.00K 0.00K
SHERIDAN GRANT CO. AR 04/04/2011 08:55 CST-6 Thunderstorm Wind 52 kts. EG 0 0 25.00K 0.00K
SHERIDAN GRANT CO. AR 04/04/2011 08:58 CST-6 Thunderstorm Wind 52 kts. EG 0 0 5.00K 0.00K
RISON CLEVELAND CO. AR 04/04/2011 09:08 CST-6 Thunderstorm Wind 52 kts. EG 0 0 25.00K 0.00K
RISON CLEVELAND CO. AR 04/04/2011 09:10 CST-6 Thunderstorm Wind 52 kts. EG 0 0 20.00K 0.00K
SULPHUR SPGS JEFFERSON CO. AR 04/04/2011 09:10 CST-6 Thunderstorm Wind 52 kts. EG 0 0 10.00K 0.00K
PINE BLUFF JEFFERSON CO. AR 04/04/2011 09:13 CST-6 Thunderstorm Wind 56 kts. EG 0 1 125.00K 0.00K
REDFIELD JEFFERSON CO. AR 04/04/2011 09:15 CST-6 Thunderstorm Wind 52 kts. EG 0 0 3.00K 0.00K
GLENDALE LINCOLN CO. AR 04/04/2011 09:18 CST-6 Thunderstorm Wind 56 kts. EG 0 0 250.00K 0.00K
HUMPHREY ARKANSAS CO. AR 04/04/2011 09:31 CST-6 Thunderstorm Wind 52 kts. EG 0 0 5.00K 0.00K
STUTTGART ARKANSAS CO. AR 04/04/2011 09:33 CST-6 Thunderstorm Wind 56 kts. EG 0 0 650.00K 0.00K
HAMPTON CALHOUN CO. AR 04/04/2011 09:36 CST-6 Thunderstorm Wind 52 kts. EG 0 0 10.00K 0.00K
STUTTGART ARKANSAS CO. AR 04/04/2011 09:40 CST-6 Thunderstorm Wind 52 kts. MG 0 0 0.00K 0.00K
STUTTGART ARKANSAS CO. AR 04/04/2011 09:40 CST-6 Hail 1.00 in. 0 0 0.00K 0.00K
CLARENDON MONROE CO. AR 04/04/2011 09:50 CST-6 Lightning 0 1 1.00K 0.00K
MONTICELLO DREW CO. AR 04/04/2011 09:50 CST-6 Thunderstorm Wind 52 kts. EG 0 0 10.00K 0.00K
DE WITT ARKANSAS CO. AR 04/04/2011 09:54 CST-6 Thunderstorm Wind 52 kts. EG 0 0 20.00K 0.00K
ST CHARLES ARKANSAS CO. AR 04/04/2011 10:03 CST-6 Thunderstorm Wind 52 kts. EG 0 0 20.00K 0.00K
YANCOPIN DESHA CO. AR 04/04/2011 10:22 CST-6 Thunderstorm Wind 52 kts. EG 0 0 10.00K 0.00K
Totals: 0 3 1.765M 0.00K